This is the latest recevied weather packets stored in our database for station/object K3FEF-13. If no packets are shown the sender has not sent any weather packets the latest 10 day(s).
| Time | Temp. | Humidity | Pressure | Rain* | Wind** | Luminosity | Snow |
|---|---|---|---|---|---|---|---|
| 1777367717 | 4.44° C | 82% | 1024.2 hPa | 0 mm | - | - | - |
| 1777367117 | 4.44° C | 81% | 1024.1 hPa | 0 mm | - | - | - |
| 1777365917 | 5° C | 81% | 1024.3 hPa | 0 mm | - | - | - |
| 1777363517 | 5.56° C | 80% | 1024.5 hPa | 0 mm | - | - | - |
| 1777359916 | 6.67° C | 75% | 1024.9 hPa | 0 mm | - | - | - |
| 1777356916 | 7.78° C | 75% | 1025.6 hPa | 0 mm | - | - | - |
| 1777356336 | 7.78° C | 75% | 1025.7 hPa | 0 mm | - | - | - |
| 1777349716 | 10° C | 66% | 1026.3 hPa | 0 mm | - | - | - |
| 1777349116 | 10° C | 66% | 1026.4 hPa | 0 mm | - | - | - |
| 1777347917 | 10.56° C | 64% | 1026.4 hPa | 0 mm | - | - | - |
| 1777343717 | 11.67° C | 60% | 1026.9 hPa | 0 mm | - | - | - |
| 1777343137 | 12.22° C | 60% | 1027 hPa | 0 mm | - | - | - |
| 1777337117 | 14.44° C | 52% | 1026.2 hPa | 0 mm | - | - | - |
| 1777334716 | 16.11° C | 49% | 1025.5 hPa | 0 mm | - | - | - |
| 1777331137 | 17.78° C | 43% | 1024.9 hPa | 0 mm | - | - | - |
| 1777329336 | 18.89° C | 42% | 1024.9 hPa | 0 mm | - | - | - |
| 1777328716 | 18.89° C | 41% | 1025 hPa | 0 mm | - | - | - |
| 1777326916 | 18.89° C | 40% | 1025.1 hPa | 0 mm | - | - | - |
| 1777323916 | 19.44° C | 37% | 1025.5 hPa | 0 mm | - | - | - |
| 1777323316 | 19.44° C | 37% | 1025.7 hPa | 0 mm | - | - | - |
| 1777320316 | 19.44° C | 39% | 1025.7 hPa | 0 mm | - | - | - |
| 1777319716 | 20° C | 39% | 1025.7 hPa | 0 mm | - | - | - |
| 1777318516 | 19.44° C | 40% | 1025.5 hPa | 0 mm | - | - | - |
| 1777317916 | 19.44° C | 41% | 1025.8 hPa | 0 mm | - | - | - |
| 1777304715 | 17.78° C | 46% | 1027.4 hPa | 0 mm | - | - | - |
* Rain latest hour (hover to see other rain measurements)
** Current wind speed in m/s (hover to see current wind gust speed)